Station Historical Data
Daily Summary for February 23, 2017 Units:  English    Metric   Both
« Previous Day
Next Day »
Daily Weekly Monthly Yearly Custom
  High: Low: Average:
Temperature: 59.5 °F 42.5 °F 53.1 °F
Dew Point: 53.3 °F 38.0 °F 48.1 °F
Humidity: 91% 78% 83%
Wind Speed: 15.0mph 0.0mph 5.2mph
Wind Gust: 25.0mph - -
Wind- - SSW
Pressure: 29.88 in 29.66 in -
Precipitation: 0.00 in    
Historical Graphs
 
 
Tabular Data for February 23, 2017
Time Temperature Dew Point Pressure Wind Wind Speed Wind Gust Humidity Rainfall Rate (Hourly)
00:04 56.8 °F 51.7 °F 29.75 in South 3.0 mph 7.0 mph 83% 0.00 in
00:09 56.8 °F 51.7 °F 29.74 in SSW 3.0 mph 7.0 mph 83% 0.00 in
00:14 57.0 °F 51.9 °F 29.74 in SW 5.0 mph 9.0 mph 83% 0.00 in
00:19 57.1 °F 52.0 °F 29.74 in SW 7.0 mph 10.0 mph 83% 0.00 in
00:24 57.1 °F 51.7 °F 29.74 in SSW 4.0 mph 10.0 mph 82% 0.00 in
00:29 57.0 °F 51.6 °F 29.74 in SSW 4.0 mph 8.0 mph 82% 0.00 in
00:34 56.7 °F 51.6 °F 29.73 in SSW 4.0 mph 7.0 mph 83% 0.00 in
00:39 56.5 °F 51.4 °F 29.73 in SSW 4.0 mph 7.0 mph 83% 0.00 in
00:44 56.4 °F 51.3 °F 29.73 in SSW 7.0 mph 10.0 mph 83% 0.00 in
00:49 56.2 °F 51.1 °F 29.73 in SW 3.0 mph 8.0 mph 83% 0.00 in
00:54 56.0 °F 50.9 °F 29.73 in SSW 4.0 mph 8.0 mph 83% 0.00 in
00:59 55.8 °F 51.0 °F 29.73 in SSW 4.0 mph 7.0 mph 84% 0.00 in
01:04 55.6 °F 50.8 °F 29.73 in SW 3.0 mph 7.0 mph 84% 0.00 in
01:09 55.7 °F 50.9 °F 29.73 in SSW 4.0 mph 7.0 mph 84% 0.00 in
01:14 55.7 °F 50.9 °F 29.72 in SSW 4.0 mph 9.0 mph 84% 0.00 in
01:19 55.8 °F 51.0 °F 29.73 in South 6.0 mph 10.0 mph 84% 0.00 in
01:24 56.0 °F 51.2 °F 29.72 in South 3.0 mph 7.0 mph 84% 0.00 in
01:29 55.9 °F 51.1 °F 29.72 in SSW 4.0 mph 7.0 mph 84% 0.00 in
01:34 55.8 °F 51.0 °F 29.72 in SSW 4.0 mph 8.0 mph 84% 0.00 in
01:39 55.7 °F 50.9 °F 29.72 in SSW 4.0 mph 8.0 mph 84% 0.00 in
01:44 55.5 °F 50.7 °F 29.72 in SW 4.0 mph 7.0 mph 84% 0.00 in
01:49 55.4 °F 50.6 °F 29.71 in South 3.0 mph 8.0 mph 84% 0.00 in
01:54 55.4 °F 50.6 °F 29.71 in West 5.0 mph 8.0 mph 84% 0.00 in
01:59 55.4 °F 50.6 °F 29.72 in SSW 4.0 mph 8.0 mph 84% 0.00 in
02:04 55.4 °F 50.6 °F 29.72 in SSW 3.0 mph 7.0 mph 84% 0.00 in
02:09 55.6 °F 50.8 °F 29.72 in SW 4.0 mph 10.0 mph 84% 0.00 in
02:14 56.0 °F 51.2 °F 29.71 in SW 6.0 mph 8.0 mph 84% 0.00 in
02:19 56.4 °F 51.3 °F 29.71 in WSW 4.0 mph 9.0 mph 83% 0.00 in
02:24 56.6 °F 51.2 °F 29.71 in SW 3.0 mph 15.0 mph 82% 0.00 in
02:29 56.9 °F 51.5 °F 29.71 in SW 4.0 mph 9.0 mph 82% 0.00 in
02:34 56.9 °F 51.1 °F 29.71 in SW 6.0 mph 12.0 mph 81% 0.00 in
02:39 56.9 °F 51.1 °F 29.71 in SSW 5.0 mph 11.0 mph 81% 0.00 in
02:44 56.9 °F 51.1 °F 29.71 in SSW 5.0 mph 11.0 mph 81% 0.00 in
02:49 56.9 °F 51.1 °F 29.71 in SW 4.0 mph 13.0 mph 81% 0.00 in
02:54 56.9 °F 51.1 °F 29.71 in SW 5.0 mph 11.0 mph 81% 0.00 in
02:59 56.8 °F 51.0 °F 29.71 in South 6.0 mph 8.0 mph 81% 0.00 in
03:04 56.8 °F 51.0 °F 29.71 in SSW 4.0 mph 9.0 mph 81% 0.00 in
03:09 56.8 °F 51.0 °F 29.70 in SSW 4.0 mph 9.0 mph 81% 0.00 in
03:14 56.8 °F 51.0 °F 29.70 in SSW 4.0 mph 8.0 mph 81% 0.00 in
03:19 56.8 °F 50.7 °F 29.71 in SSW 4.0 mph 9.0 mph 80% 0.00 in
03:24 56.9 °F 50.8 °F 29.70 in SW 4.0 mph 9.0 mph 80% 0.00 in
03:29 57.0 °F 50.9 °F 29.70 in SSW 4.0 mph 8.0 mph 80% 0.00 in
03:34 57.0 °F 50.9 °F 29.70 in SW 4.0 mph 9.0 mph 80% 0.00 in
03:39 57.2 °F 50.7 °F 29.70 in SW 8.0 mph 9.0 mph 79% 0.00 in
03:44 57.4 °F 50.9 °F 29.70 in SW 5.0 mph 11.0 mph 79% 0.00 in
03:49 57.5 °F 51.0 °F 29.70 in South 4.0 mph 10.0 mph 79% 0.00 in
03:54 57.4 °F 50.9 °F 29.70 in SSW 6.0 mph 11.0 mph 79% 0.00 in
03:59 57.4 °F 50.9 °F 29.69 in South 4.0 mph 11.0 mph 79% 0.00 in
04:04 57.0 °F 50.5 °F 29.70 in SSW 2.0 mph 9.0 mph 79% 0.00 in
04:09 56.8 °F 50.7 °F 29.69 in SSW 4.0 mph 9.0 mph 80% 0.00 in
04:14 56.8 °F 50.7 °F 29.69 in SSW 4.0 mph 9.0 mph 80% 0.00 in
04:19 56.9 °F 50.8 °F 29.69 in SSW 5.0 mph 9.0 mph 80% 0.00 in
04:24 57.0 °F 50.9 °F 29.69 in SSW 5.0 mph 9.0 mph 80% 0.00 in
04:29 56.9 °F 50.8 °F 29.69 in SSW 4.0 mph 9.0 mph 80% 0.00 in
04:34 56.7 °F 50.9 °F 29.69 in SSW 4.0 mph 9.0 mph 81% 0.00 in
04:39 56.5 °F 50.7 °F 29.69 in SSW 6.0 mph 7.0 mph 81% 0.00 in
04:44 56.5 °F 50.7 °F 29.69 in SSW 4.0 mph 8.0 mph 81% 0.00 in
04:49 56.3 °F 50.5 °F 29.69 in SW 3.0 mph 10.0 mph 81% 0.00 in
04:54 56.0 °F 50.3 °F 29.69 in South 4.0 mph 7.0 mph 81% 0.00 in
04:59 56.0 °F 50.6 °F 29.69 in South 5.0 mph 8.0 mph 82% 0.00 in
05:04 55.7 °F 50.3 °F 29.68 in South 3.0 mph 7.0 mph 82% 0.00 in
05:09 55.7 °F 50.3 °F 29.69 in South 6.0 mph 10.0 mph 82% 0.00 in
05:14 55.7 °F 50.6 °F 29.69 in SSW 5.0 mph 10.0 mph 83% 0.00 in
05:19 55.9 °F 50.5 °F 29.68 in SSW 4.0 mph 11.0 mph 82% 0.00 in
05:24 56.2 °F 50.8 °F 29.68 in SSW 5.0 mph 11.0 mph 82% 0.00 in
05:29 56.0 °F 50.6 °F 29.69 in SSW 5.0 mph 11.0 mph 82% 0.00 in
05:34 56.2 °F 50.8 °F 29.69 in SSW 4.0 mph 8.0 mph 82% 0.00 in
05:39 56.2 °F 50.8 °F 29.68 in South 2.0 mph 9.0 mph 82% 0.00 in
05:44 56.2 °F 50.8 °F 29.68 in SSW 5.0 mph 10.0 mph 82% 0.00 in
05:49 56.2 °F 50.8 °F 29.68 in SSW 4.0 mph 10.0 mph 82% 0.00 in
05:54 56.1 °F 50.7 °F 29.67 in South 3.0 mph 8.0 mph 82% 0.00 in
05:59 55.9 °F 50.5 °F 29.67 in SSW 7.0 mph 12.0 mph 82% 0.00 in
06:04 55.9 °F 50.5 °F 29.67 in SSW 5.0 mph 13.0 mph 82% 0.00 in
06:09 56.0 °F 50.6 °F 29.67 in South 3.0 mph 12.0 mph 82% 0.00 in
06:14 56.2 °F 50.8 °F 29.67 in South 3.0 mph 12.0 mph 82% 0.00 in
06:19 56.1 °F 50.7 °F 29.67 in SSW 5.0 mph 12.0 mph 82% 0.00 in
06:24 56.1 °F 50.7 °F 29.67 in SSW 5.0 mph 9.0 mph 82% 0.00 in
06:29 56.3 °F 50.9 °F 29.67 in SSW 6.0 mph 11.0 mph 82% 0.00 in
06:34 56.5 °F 50.7 °F 29.67 in South 7.0 mph 11.0 mph 81% 0.00 in
06:39 56.7 °F 50.9 °F 29.67 in South 4.0 mph 16.0 mph 81% 0.00 in
06:44 56.6 °F 51.2 °F 29.67 in SSW 4.0 mph 13.0 mph 82% 0.00 in
06:49 56.6 °F 51.2 °F 29.67 in SSW 6.0 mph 13.0 mph 82% 0.00 in
06:54 56.7 °F 51.3 °F 29.67 in SSW 6.0 mph 12.0 mph 82% 0.00 in
06:59 56.8 °F 51.4 °F 29.67 in SSW 6.0 mph 14.0 mph 82% 0.00 in
07:04 56.9 °F 51.5 °F 29.67 in SSW 6.0 mph 14.0 mph 82% 0.00 in
07:09 57.0 °F 51.6 °F 29.67 in SW 4.0 mph 15.0 mph 82% 0.00 in
07:14 57.1 °F 51.7 °F 29.67 in South 6.0 mph 13.0 mph 82% 0.00 in
07:19 57.1 °F 51.7 °F 29.67 in SSW 6.0 mph 15.0 mph 82% 0.00 in
07:24 57.2 °F 51.8 °F 29.67 in SSW 6.0 mph 15.0 mph 82% 0.00 in
07:29 57.3 °F 51.9 °F 29.67 in SW 4.0 mph 10.0 mph 82% 0.00 in
07:34 57.2 °F 51.8 °F 29.67 in SSW 4.0 mph 10.0 mph 82% 0.00 in
07:39 57.3 °F 51.9 °F 29.67 in South 7.0 mph 10.0 mph 82% 0.00 in
07:44 57.4 °F 51.6 °F 29.67 in WSW 4.0 mph 11.0 mph 81% 0.00 in
07:49 57.6 °F 52.1 °F 29.67 in SSW 5.0 mph 11.0 mph 82% 0.00 in
07:54 57.6 °F 52.1 °F 29.67 in SSW 5.0 mph 11.0 mph 82% 0.00 in
07:59 57.6 °F 52.1 °F 29.68 in SSW 5.0 mph 11.0 mph 82% 0.00 in
08:04 57.8 °F 52.0 °F 29.68 in SSW 5.0 mph 11.0 mph 81% 0.00 in
08:09 57.8 °F 52.0 °F 29.67 in SSW 5.0 mph 12.0 mph 81% 0.00 in
08:14 58.0 °F 52.2 °F 29.67 in SSW 5.0 mph 14.0 mph 81% 0.00 in
08:19 58.1 °F 52.3 °F 29.67 in SSW 8.0 mph 12.0 mph 81% 0.00 in
08:24 58.1 °F 52.3 °F 29.67 in SSW 6.0 mph 14.0 mph 81% 0.00 in
08:29 58.3 °F 52.5 °F 29.67 in SSW 6.0 mph 14.0 mph 81% 0.00 in
08:34 58.4 °F 52.6 °F 29.67 in SSW 6.0 mph 14.0 mph 81% 0.00 in
08:39 58.6 °F 52.8 °F 29.67 in South 7.0 mph 11.0 mph 81% 0.00 in
08:44 58.6 °F 52.8 °F 29.67 in SSW 3.0 mph 14.0 mph 81% 0.00 in
08:49 58.7 °F 52.9 °F 29.67 in SW 11.0 mph 12.0 mph 81% 0.00 in
08:54 58.9 °F 53.1 °F 29.67 in SSW 7.0 mph 13.0 mph 81% 0.00 in
08:59 58.9 °F 52.7 °F 29.67 in SW 7.0 mph 14.0 mph 80% 0.00 in
09:04 59.1 °F 52.9 °F 29.67 in SW 7.0 mph 14.0 mph 80% 0.00 in
09:09 59.3 °F 53.1 °F 29.67 in SSW 10.0 mph 19.0 mph 80% 0.00 in
09:14 59.4 °F 53.2 °F 29.67 in SW 10.0 mph 16.0 mph 80% 0.00 in
09:19 59.5 °F 53.3 °F 29.67 in SW 15.0 mph 19.0 mph 80% 0.00 in
09:24 59.5 °F 53.0 °F 29.67 in SW 12.0 mph 17.0 mph 79% 0.00 in
09:29 59.5 °F 53.3 °F 29.67 in SW 10.0 mph 21.0 mph 80% 0.00 in
09:34 59.5 °F 53.3 °F 29.67 in SW 11.0 mph 21.0 mph 80% 0.00 in
09:39 59.5 °F 53.3 °F 29.67 in SE 11.0 mph 19.0 mph 80% 0.00 in
09:44 59.5 °F 53.0 °F 29.67 in SW 10.0 mph 21.0 mph 79% 0.00 in
09:49 59.5 °F 53.0 °F 29.67 in WSW 5.0 mph 18.0 mph 79% 0.00 in
09:54 59.5 °F 53.3 °F 29.67 in ESE 5.0 mph 19.0 mph 80% 0.00 in
09:59 59.5 °F 53.3 °F 29.66 in SW 7.0 mph 19.0 mph 80% 0.00 in
10:04 59.5 °F 53.3 °F 29.66 in SW 10.0 mph 19.0 mph 80% 0.00 in
10:09 59.5 °F 53.3 °F 29.66 in SW 10.0 mph 18.0 mph 80% 0.00 in
10:14 59.5 °F 53.3 °F 29.67 in SW 10.0 mph 18.0 mph 80% 0.00 in
10:19 59.5 °F 53.3 °F 29.67 in SW 9.0 mph 17.0 mph 80% 0.00 in
10:24 59.5 °F 53.3 °F 29.67 in WSW 8.0 mph 18.0 mph 80% 0.00 in
10:29 59.4 °F 53.2 °F 29.67 in SW 12.0 mph 19.0 mph 80% 0.00 in
10:34 59.3 °F 53.1 °F 29.67 in SW 10.0 mph 20.0 mph 80% 0.00 in
10:39 59.2 °F 53.0 °F 29.67 in WSW 10.0 mph 17.0 mph 80% 0.00 in
10:44 59.2 °F 53.0 °F 29.67 in SW 9.0 mph 17.0 mph 80% 0.00 in
10:49 59.2 °F 53.0 °F 29.67 in SW 9.0 mph 16.0 mph 80% 0.00 in
10:54 59.1 °F 52.9 °F 29.66 in SW 9.0 mph 17.0 mph 80% 0.00 in
10:59 59.1 °F 52.9 °F 29.67 in SW 10.0 mph 19.0 mph 80% 0.00 in
11:04 59.1 °F 52.9 °F 29.67 in WSW 4.0 mph 19.0 mph 80% 0.00 in
11:09 59.0 °F 52.8 °F 29.67 in SW 9.0 mph 20.0 mph 80% 0.00 in
11:14 59.0 °F 52.8 °F 29.67 in SW 9.0 mph 20.0 mph 80% 0.00 in
11:19 59.1 °F 53.3 °F 29.67 in SW 9.0 mph 16.0 mph 81% 0.00 in
11:24 59.1 °F 52.9 °F 29.67 in WSW 9.0 mph 20.0 mph 80% 0.00 in
11:29 59.0 °F 52.8 °F 29.67 in WSW 10.0 mph 16.0 mph 80% 0.00 in
11:34 59.1 °F 52.9 °F 29.67 in WSW 7.0 mph 18.0 mph 80% 0.00 in
11:39 58.6 °F 52.1 °F 29.68 in WSW 9.0 mph 18.0 mph 79% 0.00 in
11:44 56.4 °F 50.3 °F 29.68 in WSW 13.0 mph 18.0 mph 80% 0.00 in
11:49 55.1 °F 50.0 °F 29.68 in WSW 9.0 mph 15.0 mph 83% 0.00 in
11:54 54.9 °F 50.2 °F 29.68 in SW 14.0 mph 19.0 mph 84% 0.00 in
11:59 54.8 °F 50.4 °F 29.68 in WNW 8.0 mph 18.0 mph 85% 0.00 in
12:04 54.9 °F 50.5 °F 29.68 in SW 9.0 mph 20.0 mph 85% 0.00 in
12:09 54.8 °F 50.4 °F 29.68 in WSW 10.0 mph 20.0 mph 85% 0.00 in
12:14 54.9 °F 50.5 °F 29.69 in WSW 10.0 mph 20.0 mph 85% 0.00 in
12:19 55.0 °F 50.6 °F 29.69 in WSW 11.0 mph 20.0 mph 85% 0.00 in
12:24 55.2 °F 50.8 °F 29.68 in WSW 11.0 mph 20.0 mph 85% 0.00 in
12:29 55.5 °F 51.1 °F 29.68 in WSW 13.0 mph 22.0 mph 85% 0.00 in
12:34 55.6 °F 50.5 °F 29.68 in West 10.0 mph 15.0 mph 83% 0.00 in
12:39 55.4 °F 50.0 °F 29.68 in WSW 10.0 mph 18.0 mph 82% 0.00 in
12:44 55.7 °F 50.6 °F 29.69 in WSW 10.0 mph 18.0 mph 83% 0.00 in
12:49 56.3 °F 50.9 °F 29.69 in WSW 8.0 mph 16.0 mph 82% 0.00 in
12:54 56.8 °F 51.0 °F 29.69 in WSW 12.0 mph 17.0 mph 81% 0.00 in
12:59 56.9 °F 51.1 °F 29.69 in West 7.0 mph 15.0 mph 81% 0.00 in
13:04 57.3 °F 51.2 °F 29.69 in West 4.0 mph 17.0 mph 80% 0.00 in
13:09 57.8 °F 51.7 °F 29.69 in West 7.0 mph 17.0 mph 80% 0.00 in
13:14 57.6 °F 51.1 °F 29.69 in West 8.0 mph 17.0 mph 79% 0.00 in
13:19 56.6 °F 50.8 °F 29.69 in West 10.0 mph 22.0 mph 81% 0.00 in
13:24 56.4 °F 50.6 °F 29.69 in West 11.0 mph 25.0 mph 81% 0.00 in
13:29 56.9 °F 51.1 °F 29.69 in West 10.0 mph 25.0 mph 81% 0.00 in
13:34 57.5 °F 51.4 °F 29.69 in West 8.0 mph 18.0 mph 80% 0.00 in
13:39 57.8 °F 51.3 °F 29.69 in West 8.0 mph 19.0 mph 79% 0.00 in
13:44 58.4 °F 51.6 °F 29.69 in WSW 6.0 mph 16.0 mph 78% 0.00 in
13:49 58.0 °F 51.2 °F 29.69 in South 13.0 mph 18.0 mph 78% 0.00 in
13:54 57.7 °F 50.9 °F 29.69 in SW 13.0 mph 19.0 mph 78% 0.00 in
13:59 57.8 °F 51.3 °F 29.69 in West 15.0 mph 15.0 mph 79% 0.00 in
14:04 56.6 °F 50.2 °F 29.70 in SW 11.0 mph 22.0 mph 79% 0.00 in
14:09 56.1 °F 50.0 °F 29.70 in WSW 10.0 mph 17.0 mph 80% 0.00 in
14:14 55.4 °F 49.3 °F 29.71 in SSE 4.0 mph 17.0 mph 80% 0.00 in
14:19 54.6 °F 48.6 °F 29.71 in WSW 8.0 mph 17.0 mph 80% 0.00 in
14:24 53.6 °F 48.2 °F 29.71 in SW 9.0 mph 16.0 mph 82% 0.00 in
14:29 52.2 °F 46.9 °F 29.72 in WSW 8.0 mph 16.0 mph 82% 0.00 in
14:34 51.5 °F 46.5 °F 29.72 in SW 8.0 mph 16.0 mph 83% 0.00 in
14:39 51.0 °F 46.0 °F 29.72 in SW 7.0 mph 15.0 mph 83% 0.00 in
14:44 51.0 °F 46.0 °F 29.72 in SW 8.0 mph 14.0 mph 83% 0.00 in
14:49 50.6 °F 45.9 °F 29.73 in WSW 6.0 mph 14.0 mph 84% 0.00 in
14:54 49.8 °F 45.5 °F 29.73 in SW 4.0 mph 13.0 mph 85% 0.00 in
14:59 49.7 °F 45.1 °F 29.73 in SW 7.0 mph 14.0 mph 84% 0.00 in
15:04 49.8 °F 45.2 °F 29.74 in SSW 6.0 mph 18.0 mph 84% 0.00 in
15:09 49.9 °F 45.6 °F 29.74 in SW 6.0 mph 12.0 mph 85% 0.00 in
15:14 49.5 °F 45.2 °F 29.74 in SW 7.0 mph 16.0 mph 85% 0.00 in
15:19 49.7 °F 45.4 °F 29.74 in SW 5.0 mph 14.0 mph 85% 0.00 in
15:24 50.1 °F 45.5 °F 29.74 in WSW 7.0 mph 14.0 mph 84% 0.00 in
15:29 50.4 °F 46.1 °F 29.74 in WSW 7.0 mph 13.0 mph 85% 0.00 in
15:34 50.1 °F 45.5 °F 29.74 in WSW 7.0 mph 15.0 mph 84% 0.00 in
15:39 50.3 °F 45.6 °F 29.74 in SW 8.0 mph 17.0 mph 84% 0.00 in
15:44 50.2 °F 45.6 °F 29.75 in SW 8.0 mph 17.0 mph 84% 0.00 in
15:49 49.9 °F 45.6 °F 29.75 in SW 8.0 mph 15.0 mph 85% 0.00 in
15:54 50.0 °F 45.4 °F 29.75 in SW 7.0 mph 15.0 mph 84% 0.00 in
15:59 50.0 °F 45.4 °F 29.75 in SW 6.0 mph 15.0 mph 84% 0.00 in
16:04 49.8 °F 45.5 °F 29.75 in SW 9.0 mph 12.0 mph 85% 0.00 in
16:09 49.8 °F 45.5 °F 29.75 in SW 8.0 mph 11.0 mph 85% 0.00 in
16:14 49.9 °F 45.6 °F 29.75 in WSW 6.0 mph 15.0 mph 85% 0.00 in
16:19 49.9 °F 45.6 °F 29.75 in West 4.0 mph 13.0 mph 85% 0.00 in
16:24 49.9 °F 45.6 °F 29.76 in SW 8.0 mph 13.0 mph 85% 0.00 in
16:29 49.7 °F 45.4 °F 29.76 in SW 6.0 mph 14.0 mph 85% 0.00 in
16:34 49.6 °F 45.3 °F 29.76 in SW 6.0 mph 14.0 mph 85% 0.00 in
16:39 49.4 °F 45.4 °F 29.76 in SW 6.0 mph 14.0 mph 86% 0.00 in
16:44 49.4 °F 45.4 °F 29.76 in SW 7.0 mph 14.0 mph 86% 0.00 in
16:49 49.3 °F 45.6 °F 29.77 in SW 6.0 mph 14.0 mph 87% 0.00 in
16:54 49.2 °F 45.5 °F 29.77 in WSW 12.0 mph 12.0 mph 87% 0.00 in
16:59 49.4 °F 45.7 °F 29.77 in WSW 7.0 mph 12.0 mph 87% 0.00 in
17:04 49.5 °F 45.8 °F 29.77 in SW 12.0 mph 12.0 mph 87% 0.00 in
17:09 49.6 °F 45.9 °F 29.77 in WSW 8.0 mph 15.0 mph 87% 0.00 in
17:14 49.5 °F 45.8 °F 29.77 in SW 8.0 mph 15.0 mph 87% 0.00 in
17:19 49.4 °F 45.7 °F 29.78 in SW 8.0 mph 14.0 mph 87% 0.00 in
17:24 49.3 °F 45.6 °F 29.78 in WSW 6.0 mph 14.0 mph 87% 0.00 in
17:29 49.2 °F 45.5 °F 29.78 in SW 3.0 mph 12.0 mph 87% 0.00 in
17:34 49.0 °F 45.3 °F 29.79 in West 2.0 mph 6.0 mph 87% 0.00 in
17:39 48.8 °F 45.4 °F 29.80 in South 5.0 mph 9.0 mph 88% 0.00 in
17:44 48.5 °F 45.1 °F 29.80 in WSW 5.0 mph 9.0 mph 88% 0.00 in
17:49 48.2 °F 44.8 °F 29.80 in WSW 5.0 mph 9.0 mph 88% 0.00 in
17:54 47.9 °F 44.5 °F 29.81 in West 1.0 mph 8.0 mph 88% 0.00 in
17:59 47.8 °F 44.7 °F 29.81 in SW 5.0 mph 6.0 mph 89% 0.00 in
18:04 47.7 °F 44.6 °F 29.82 in SW 1.0 mph 6.0 mph 89% 0.00 in
18:09 47.3 °F 44.2 °F 29.82 in SW 3.0 mph 9.0 mph 89% 0.00 in
18:14 47.4 °F 44.3 °F 29.82 in WSW 3.0 mph 9.0 mph 89% 0.00 in
18:19 47.4 °F 44.3 °F 29.83 in WSW 3.0 mph 5.0 mph 89% 0.00 in
18:24 47.4 °F 44.3 °F 29.83 in WSW 3.0 mph 6.0 mph 89% 0.00 in
18:29 47.4 °F 44.3 °F 29.83 in SW 4.0 mph 5.0 mph 89% 0.00 in
18:34 47.3 °F 44.2 °F 29.84 in SW 3.0 mph 6.0 mph 89% 0.00 in
18:39 47.1 °F 44.0 °F 29.83 in WSW 3.0 mph 4.0 mph 89% 0.00 in
18:44 46.9 °F 43.8 °F 29.83 in SW 2.0 mph 4.0 mph 89% 0.00 in
18:49 46.8 °F 43.7 °F 29.84 in SW 1.0 mph 4.0 mph 89% 0.00 in
18:54 46.8 °F 44.0 °F 29.85 in SSW 1.0 mph 4.0 mph 90% 0.00 in
18:59 46.7 °F 43.9 °F 29.85 in SW 1.0 mph 4.0 mph 90% 0.00 in
19:04 46.6 °F 43.8 °F 29.85 in Calm   3.0 mph 90% 0.00 in
19:09 46.7 °F 43.9 °F 29.85 in SW 1.0 mph 2.0 mph 90% 0.00 in
19:14 46.5 °F 43.7 °F 29.85 in SW 1.0 mph 2.0 mph 90% 0.00 in
19:19 46.5 °F 43.7 °F 29.85 in Calm     90% 0.00 in
19:24 46.3 °F 43.5 °F 29.85 in Calm   1.0 mph 90% 0.00 in
19:29 46.2 °F 43.4 °F 29.85 in Calm   2.0 mph 90% 0.00 in
19:34 46.1 °F 43.3 °F 29.85 in Calm   1.0 mph 90% 0.00 in
19:39 45.8 °F 43.0 °F 29.85 in Calm     90% 0.00 in
19:44 45.5 °F 42.7 °F 29.85 in Calm     90% 0.00 in
19:49 45.3 °F 42.5 °F 29.85 in Calm     90% 0.00 in
19:54 45.2 °F 42.4 °F 29.84 in Calm     90% 0.00 in
19:59 45.3 °F 42.8 °F 29.85 in Calm     91% 0.00 in
20:04 45.2 °F 42.4 °F 29.84 in Calm     90% 0.00 in
20:09 45.0 °F 42.2 °F 29.85 in Calm     90% 0.00 in
20:14 44.9 °F 42.4 °F 29.86 in Calm     91% 0.00 in
20:19 45.0 °F 42.5 °F 29.86 in Calm     91% 0.00 in
20:24 45.2 °F 42.4 °F 29.85 in Calm     90% 0.00 in
20:29 45.1 °F 42.3 °F 29.86 in Calm     90% 0.00 in
20:34 44.7 °F 41.9 °F 29.86 in SW 1.0 mph 1.0 mph 90% 0.00 in
20:39 44.5 °F 41.7 °F 29.86 in Calm   1.0 mph 90% 0.00 in
20:44 44.4 °F 41.7 °F 29.87 in Calm     90% 0.00 in
20:49 44.3 °F 41.6 °F 29.87 in Calm     90% 0.00 in
20:54 44.2 °F 41.2 °F 29.86 in Calm     89% 0.00 in
20:59 44.1 °F 41.1 °F 29.86 in Calm     89% 0.00 in
21:04 44.4 °F 41.4 °F 29.86 in Calm     89% 0.00 in
21:09 44.9 °F 41.6 °F 29.87 in Calm     88% 0.00 in
21:14 45.0 °F 41.4 °F 29.87 in Calm     87% 0.00 in
21:19 44.8 °F 41.2 °F 29.87 in Calm     87% 0.00 in
21:24 44.6 °F 41.0 °F 29.87 in Calm     87% 0.00 in
21:29 44.8 °F 41.2 °F 29.87 in Calm     87% 0.00 in
21:34 45.3 °F 41.7 °F 29.88 in Calm     87% 0.00 in
21:39 45.5 °F 41.6 °F 29.88 in Calm     86% 0.00 in
21:44 45.5 °F 41.3 °F 29.88 in Calm     85% 0.00 in
21:49 45.9 °F 41.6 °F 29.88 in Calm   2.0 mph 85% 0.00 in
21:54 46.0 °F 41.1 °F 29.87 in Calm   2.0 mph 83% 0.00 in
21:59 46.3 °F 41.4 °F 29.87 in NNW 1.0 mph 2.0 mph 83% 0.00 in
22:04 46.7 °F 41.2 °F 29.87 in NNW 1.0 mph 2.0 mph 81% 0.00 in
22:09 46.6 °F 41.4 °F 29.87 in North 1.0 mph 3.0 mph 82% 0.00 in
22:14 46.7 °F 41.2 °F 29.86 in NNE 2.0 mph 3.0 mph 81% 0.00 in
22:19 46.5 °F 41.0 °F 29.87 in NE 2.0 mph 5.0 mph 81% 0.00 in
22:24 46.4 °F 40.9 °F 29.87 in NE 1.0 mph 3.0 mph 81% 0.00 in
22:29 46.2 °F 40.7 °F 29.86 in NE 3.0 mph 7.0 mph 81% 0.00 in
22:34 46.1 °F 40.6 °F 29.86 in NE 7.0 mph 7.0 mph 81% 0.00 in
22:39 45.8 °F 40.3 °F 29.86 in NE 2.0 mph 7.0 mph 81% 0.00 in
22:44 45.6 °F 40.1 °F 29.86 in ENE 4.0 mph 6.0 mph 81% 0.00 in
22:49 45.4 °F 39.9 °F 29.86 in NE 3.0 mph 6.0 mph 81% 0.00 in
22:54 45.0 °F 39.5 °F 29.86 in NE 3.0 mph 5.0 mph 81% 0.00 in
22:59 44.7 °F 39.5 °F 29.85 in NE 2.0 mph 5.0 mph 82% 0.00 in
23:04 44.5 °F 39.3 °F 29.86 in NE 2.0 mph 5.0 mph 82% 0.00 in
23:09 44.2 °F 39.1 °F 29.85 in NE 2.0 mph 4.0 mph 82% 0.00 in
23:14 43.9 °F 38.8 °F 29.85 in NE 2.0 mph 3.0 mph 82% 0.00 in
23:19 43.6 °F 38.8 °F 29.85 in NE 3.0 mph 4.0 mph 83% 0.00 in
23:24 43.6 °F 38.8 °F 29.85 in NE 2.0 mph 4.0 mph 83% 0.00 in
23:29 43.5 °F 38.7 °F 29.85 in NE 2.0 mph 4.0 mph 83% 0.00 in
23:34 43.3 °F 38.5 °F 29.85 in NE 2.0 mph 4.0 mph 83% 0.00 in
23:39 43.2 °F 38.4 °F 29.85 in NE 5.0 mph 5.0 mph 83% 0.00 in
23:44 43.1 °F 38.3 °F 29.86 in NE 2.0 mph 5.0 mph 83% 0.00 in
23:49 42.6 °F 38.1 °F 29.86 in NE 3.0 mph 3.0 mph 84% 0.00 in
23:54 42.5 °F 38.0 °F 29.85 in NE 2.0 mph 4.0 mph 84% 0.00 in
23:59 42.5 °F 38.0 °F 29.85 in NE 2.0 mph 4.0 mph 84% 0.00 in
Buffalo, New York, USA
Compliments of Weather Underground - 2.5 mb